createdAt,value
2023-03-17T00:00:34.923Z,73.69
2023-03-17T00:06:38.048Z,72.81
2023-03-17T00:12:40.244Z,73.23
2023-03-17T00:18:42.519Z,73.97
2023-03-17T00:24:44.719Z,74.28
2023-03-17T00:30:47.845Z,74.90
2023-03-17T00:36:51.643Z,75.59
2023-03-17T00:42:54.384Z,76.06
2023-03-17T00:48:56.289Z,76.46
2023-03-17T00:54:58.593Z,76.90
2023-03-17T01:01:01.383Z,77.92
2023-03-17T01:07:03.523Z,78.49
2023-03-17T01:13:06.943Z,79.73
2023-03-17T01:19:12.349Z,79.53
2023-03-17T01:25:14.983Z,80.45
2023-03-17T01:31:17.085Z,80.71
2023-03-17T01:37:19.223Z,81.13
2023-03-17T01:43:30.715Z,80.93
2023-03-17T01:49:37.400Z,81.18
2023-03-17T01:55:40.430Z,80.52
2023-03-17T02:01:47.513Z,80.88
2023-03-17T02:07:49.464Z,80.97
2023-03-17T02:13:51.407Z,80.30
2023-03-17T02:19:54.049Z,80.08
2023-03-17T02:25:56.017Z,80.48
2023-03-17T02:31:58.144Z,79.83
2023-03-17T02:38:01.038Z,80.62
2023-03-17T02:44:02.952Z,81.33
2023-03-17T02:50:06.879Z,80.86
2023-03-17T02:56:09.891Z,81.00
2023-03-17T03:02:11.859Z,81.51
2023-03-17T03:08:13.901Z,81.61
2023-03-17T03:14:16.230Z,81.26
2023-03-17T03:20:18.436Z,81.05
2023-03-17T03:26:20.583Z,81.66
2023-03-17T03:32:22.549Z,82.24
2023-03-17T03:38:24.480Z,83.19
2023-03-17T03:44:26.403Z,82.65
2023-03-17T03:50:28.663Z,83.24
2023-03-17T03:56:31.208Z,83.69
2023-03-17T04:02:34.036Z,83.16
2023-03-17T04:08:35.951Z,82.99
2023-03-17T04:14:37.907Z,83.32
2023-03-17T04:20:39.898Z,83.93
2023-03-17T04:26:42.266Z,82.91
2023-03-17T04:32:46.365Z,83.24
2023-03-17T04:38:48.461Z,83.05
2023-03-17T04:44:50.473Z,83.23
2023-03-17T04:50:52.432Z,84.07
2023-03-17T04:56:54.348Z,84.22
2023-03-17T05:02:56.349Z,84.09
2023-03-17T05:08:58.265Z,84.25
2023-03-17T05:15:00.183Z,84.25
2023-03-17T05:21:02.339Z,84.43
2023-03-17T05:27:04.430Z,84.73
2023-03-17T05:33:06.733Z,84.57
2023-03-17T05:39:09.086Z,84.32
2023-03-17T05:45:11.858Z,84.17
2023-03-17T05:51:13.787Z,84.73
2023-03-17T05:57:16.364Z,84.89
2023-03-17T06:03:18.363Z,85.17
2023-03-17T06:09:20.275Z,84.90
2023-03-17T06:15:22.189Z,84.59
2023-03-17T06:21:24.149Z,84.59
2023-03-17T06:27:26.317Z,84.08
2023-03-17T06:33:28.518Z,84.34
2023-03-17T06:39:30.445Z,84.22
2023-03-17T06:45:34.915Z,84.82
2023-03-17T06:51:37.339Z,74.50
2023-03-17T06:57:39.245Z,63.00
2023-03-17T07:03:41.928Z,55.61
2023-03-17T07:09:43.842Z,47.03
2023-03-17T07:15:45.941Z,48.06
2023-03-17T07:21:47.888Z,53.51
2023-03-17T07:27:50.557Z,55.28
2023-03-17T07:33:52.812Z,54.48
2023-03-17T07:39:54.788Z,50.03
2023-03-17T07:45:57.069Z,54.57
2023-03-17T07:51:59.034Z,55.59
2023-03-17T07:58:01.247Z,57.06
2023-03-17T08:04:04.947Z,57.80
2023-03-17T08:10:08.764Z,55.85
2023-03-17T08:16:11.028Z,54.59
2023-03-17T08:22:13.162Z,53.80
2023-03-17T08:28:15.500Z,52.56
2023-03-17T08:34:17.447Z,48.65
2023-03-17T08:40:19.921Z,44.09
2023-03-17T08:46:29.107Z,38.48
2023-03-17T08:52:31.688Z,33.84
2023-03-17T08:58:35.953Z,29.83
2023-03-17T09:04:40.069Z,27.37
2023-03-17T09:10:44.433Z,25.29
2023-03-17T09:16:48.712Z,25.33
2023-03-17T09:22:51.167Z,26.18
2023-03-17T09:28:53.148Z,27.28
2023-03-17T09:34:55.376Z,29.23
2023-03-17T09:41:13.589Z,30.36
2023-03-17T09:47:46.079Z,31.15
2023-03-17T09:54:00.331Z,32.93
2023-03-17T10:00:19.021Z,33.32
2023-03-17T10:06:34.663Z,33.26
2023-03-17T10:12:43.853Z,32.03
2023-03-17T10:18:56.535Z,33.54
2023-03-17T10:25:05.708Z,33.16
2023-03-17T10:31:33.060Z,31.09
2023-03-17T10:37:36.709Z,30.15
2023-03-17T10:43:50.595Z,29.71
2023-03-17T10:49:53.356Z,29.49
2023-03-17T10:56:10.798Z,27.33
2023-03-17T11:02:24.615Z,27.05
2023-03-17T11:08:37.017Z,26.36
2023-03-17T11:14:44.273Z,28.37
2023-03-17T11:21:01.048Z,26.15
2023-03-17T11:27:38.223Z,26.70
2023-03-17T11:34:06.979Z,27.45
2023-03-17T11:40:28.106Z,27.34
2023-03-17T11:46:42.726Z,27.38
2023-03-17T11:52:50.222Z,27.90
2023-03-17T11:59:01.702Z,28.17
2023-03-17T12:05:15.413Z,28.14
2023-03-17T12:11:28.928Z,28.91
2023-03-17T12:17:44.480Z,29.01
2023-03-17T12:24:03.945Z,29.34
2023-03-17T12:30:23.490Z,29.46
2023-03-17T12:36:26.219Z,31.08
2023-03-17T12:43:15.286Z,31.42
2023-03-17T12:49:46.148Z,32.79
2023-03-17T12:55:52.516Z,33.74
2023-03-17T13:02:27.806Z,34.12
2023-03-17T13:08:37.491Z,35.16
2023-03-17T13:14:47.924Z,36.64
2023-03-17T13:21:01.714Z,36.77
2023-03-17T13:27:04.738Z,36.25
2023-03-17T13:33:09.840Z,38.11
2023-03-17T13:39:50.537Z,37.76
2023-03-17T13:45:52.441Z,37.75
2023-03-17T13:52:13.527Z,39.50
2023-03-17T13:58:24.040Z,38.18
2023-03-17T14:04:40.374Z,40.10
2023-03-17T14:10:45.943Z,39.74
2023-03-17T14:17:31.512Z,39.79
2023-03-17T14:23:35.854Z,40.68
2023-03-17T14:29:37.968Z,40.79
2023-03-17T14:35:43.356Z,40.81
2023-03-17T14:41:45.514Z,40.07
2023-03-17T14:47:49.443Z,39.95
2023-03-17T14:53:53.754Z,41.93
2023-03-17T14:59:59.068Z,42.20
2023-03-17T15:06:30.556Z,43.63
2023-03-17T15:12:33.030Z,42.97
2023-03-17T15:18:36.072Z,43.96
2023-03-17T15:24:40.093Z,46.23
2023-03-17T15:30:49.051Z,46.49
2023-03-17T15:36:51.271Z,48.21
2023-03-17T15:42:53.212Z,50.83
2023-03-17T15:48:55.270Z,50.31
2023-03-17T15:54:59.583Z,53.11
2023-03-17T16:01:03.484Z,53.12
2023-03-17T16:07:13.269Z,54.14
2023-03-17T16:13:15.231Z,55.25
2023-03-17T16:19:23.350Z,55.34
2023-03-17T16:25:31.792Z,54.43
2023-03-17T16:31:33.800Z,55.84
2023-03-17T16:37:35.692Z,56.14
2023-03-17T16:43:38.147Z,58.07
2023-03-17T16:49:40.270Z,59.30
2023-03-17T16:55:42.974Z,60.46
2023-03-17T17:01:44.924Z,62.26
2023-03-17T17:07:48.304Z,63.00
2023-03-17T17:13:51.614Z,63.31
2023-03-17T17:19:53.555Z,64.19
2023-03-17T17:25:55.944Z,63.70
2023-03-17T17:31:57.909Z,64.47
2023-03-17T17:38:01.636Z,63.40
2023-03-17T17:44:05.517Z,64.95
2023-03-17T17:50:09.530Z,66.03
2023-03-17T17:56:15.802Z,65.37
2023-03-17T18:02:17.692Z,66.15
2023-03-17T18:08:19.733Z,66.03
2023-03-17T18:14:21.769Z,66.69
2023-03-17T18:20:25.206Z,66.50
2023-03-17T18:26:28.541Z,63.81
2023-03-17T18:32:31.033Z,65.47
2023-03-17T18:38:33.861Z,64.85
2023-03-17T18:44:36.371Z,66.09
2023-03-17T18:50:38.261Z,66.98
2023-03-17T18:56:40.250Z,66.80
2023-03-17T19:02:42.529Z,67.84
2023-03-17T19:08:44.884Z,67.12
2023-03-17T19:14:47.266Z,67.28
2023-03-17T19:20:49.255Z,67.82
2023-03-17T19:26:51.274Z,67.55
2023-03-17T19:32:53.274Z,66.91
2023-03-17T19:38:56.287Z,66.29
2023-03-17T19:44:58.232Z,68.72
2023-03-17T19:51:01.458Z,69.18
2023-03-17T19:57:04.149Z,68.35
2023-03-17T20:03:06.188Z,69.42
2023-03-17T20:09:08.933Z,68.65
2023-03-17T20:15:13.041Z,69.49
2023-03-17T20:21:14.973Z,69.53
2023-03-17T20:27:19.713Z,70.15
2023-03-17T20:33:21.769Z,70.25
2023-03-17T20:39:24.013Z,68.14
2023-03-17T20:45:26.103Z,67.86
2023-03-17T20:51:28.320Z,70.02
2023-03-17T20:57:30.218Z,71.98
2023-03-17T21:03:32.378Z,71.90
2023-03-17T21:09:34.349Z,70.85
2023-03-17T21:15:36.297Z,70.12
2023-03-17T21:21:38.373Z,67.55
2023-03-17T21:27:40.828Z,64.25
2023-03-17T21:33:43.381Z,62.85
2023-03-17T21:39:45.861Z,66.27
2023-03-17T21:45:48.468Z,68.27
2023-03-17T21:51:51.530Z,67.19
2023-03-17T21:57:53.439Z,65.94
2023-03-17T22:03:55.383Z,66.62
2023-03-17T22:09:58.241Z,68.16
2023-03-17T22:16:00.192Z,69.50
2023-03-17T22:22:03.599Z,70.29
2023-03-17T22:28:05.490Z,69.75
2023-03-17T22:34:09.866Z,70.22
2023-03-17T22:40:12.198Z,70.19
2023-03-17T22:46:15.376Z,70.47
2023-03-17T22:52:17.554Z,70.17
2023-03-17T22:58:19.523Z,68.35
2023-03-17T23:04:21.513Z,68.41
2023-03-17T23:10:24.704Z,65.48
2023-03-17T23:16:27.174Z,64.74
2023-03-17T23:22:29.107Z,65.29
2023-03-17T23:28:31.044Z,65.85
2023-03-17T23:34:33.085Z,65.52
2023-03-17T23:40:36.097Z,66.59
2023-03-17T23:46:38.723Z,65.25
2023-03-17T23:52:42.467Z,66.43
2023-03-17T23:58:44.492Z,63.96
